Terminal Aerodrome Forecast
Issued by NWS Central Illinois

Current Version | Previous Version | Text Only | Print | Product List | Glossary On
Versions: 1 2 3 4 5 6 7 8 9 10 11 12 13 14 15 16 17 18
000
FTUS43 KILX 030500
TAFSPI
TAF
KSPI 030539Z 0306/0406 12008KT P6SM OVC050
      TEMPO 0306/0307 -FZRAPL
     FM030700 14008KT 3SM -FZRAPL BR OVC035
     FM031000 15011KT 2SM -FZRA BR OVC008
     FM031400 19014G22KT 3SM -RA BR OVC015
     FM032300 27010KT P6SM OVC015=

USA.gov is the U.S. government's official web portal to all federal, state and local government web resources and services.